AirBox status report


DeploymentNumber of DevicesDetailAvg. TemperatureAvg. HumidityAvg. PM2.5Version
1 Edimax AirBox (Taipei) 19.35% (30/155) [HTML] [JSON] [Dataset A]23.03℃ 110.17% 13.57 μg/m3 2017-11-25T09:11:02Z
2 Edimax AirBox (New Taipei) 24.5% (73/298) [HTML] [JSON] [Dataset B]22.05℃ 96.3% 10.11 μg/m3 2017-11-25T09:11:02Z
3 Edimax AirBox (Taoyuan) 39.57% (93/235) [HTML] [JSON] [Dataset A]22.17℃ 89.03% 12.25 μg/m3 2017-11-25T09:11:02Z
4 Edimax AirBox (Taichung) 70.26% (163/232) [HTML] [JSON] [Dataset B]24.53℃ 86.57% 15.43 μg/m3 2017-11-25T09:11:02Z
5 Edimax AirBox (Tainan) 56.07% (120/214) [HTML] [JSON] [Dataset B]27.1℃ 85.8% 35.35 μg/m3 2017-11-25T09:11:02Z
6 Edimax AirBox (Kaohsiung) 65.7% (159/242) [HTML] [JSON] [Dataset B]28.33℃ 79.9% 36.71 μg/m3 2017-11-25T09:11:02Z
7 Edimax AirBox (LASS) 9.46% (7/74) [HTML] [JSON] [Dataset A]27.66℃ 76.43% 22.29 μg/m3 2017-11-25T09:11:02Z
8 Edimax AirBox (TaichungZero) 50.68% (75/148) [HTML] [JSON] [Dataset A]24.69℃ 84.31% 17.15 μg/m3 2017-11-25T09:11:02Z
9 Edimax AirBox (TaoyuanFirst) 66.67% (18/27) [HTML] [JSON] [Dataset A]21.4℃ 94.5% 15.56 μg/m3 2017-11-25T09:11:02Z
10 Edimax AirBox (other) 100% (415/415) [HTML] [JSON] [Dataset A]22.12℃ 85% 13 μg/m3 2017-11-25T09:11:02Z
11 LASS AirBox (Hsinchu) 46% (23/50) [HTML] [JSON] [Dataset A]22.47℃ 85.48% 11.3 μg/m3 2017-11-25T09:11:02Z
12 LASS AirBox (Yunlin) 48.19% (93/193) [HTML] [JSON] [Dataset A]25.71℃ 73.39% 25.22 μg/m3 2017-11-25T09:11:02Z
13 LASS AirBox (Chiayi) 50.98% (26/51) [HTML] [JSON] [Dataset A]26.59℃ 71.04% 39.42 μg/m3 2017-11-25T09:11:02Z
14 LASS AirBox (Kinmen) 50% (12/24) [HTML] [JSON] [Dataset A]18.29℃ 81.25% 25.75 μg/m3 2017-11-25T09:11:02Z
15 LASS (LASS FT) 100% (85/85) [HTML] [JSON] [Dataset C]22.23℃ 69.3% 14.99 μg/m3 2017-11-25T09:11:02Z
16 LASS (LASS4U) 100% (69/69) [HTML] [JSON] [Dataset D]22.4℃ 69.45% 14.1 μg/m3 2017-11-25T09:11:02Z
17 MAPS (LoRa) 0% (0/5) [HTML] [JSON] [Dataset E]0℃ 0% 0 μg/m3 2017-11-25T09:11:02Z
18 MAPS (WiFi) 16.09% (14/87) [HTML] [JSON] [Dataset E]-15.66℃ 23.84% 22.79 μg/m3 2017-11-25T09:11:02Z
19 MAPS (other) 100% (5/5) [HTML] [JSON] [Dataset E]23.3℃ 41% 9 μg/m3 2017-11-25T09:11:02Z
20 EEVEE 100% (8/8) [HTML] [JSON] [Dataset F]22.04℃ 77% 15.88 μg/m3 2017-11-25T08:10:08Z
21 *Asus AirBox 100% (84/84) [HTML] [JSON] [Dataset G]22.77℃ 86.65% 19.18 μg/m3 2017-11-25T09:11:02Z
22 *gov Indie NAN% (0/0) [HTML] [JSON] [Dataset H]0℃ 0% 0 μg/m3 2017-11-25T09:11:02Z
23 *ProbeCube 100% (5/5) [HTML] [JSON] [Dataset I]22.86℃ 56.52% 8.2 μg/m3 2017-11-25T08:10:08Z
24 Total 58.28% (1577/2706)

Resource:

Note: